Time;durP1;ratioP1;P1;durP2;ratioP2;P2;SDS_P1;SDS_P2;PMS_P1;PMS_P2;Temp;Humidity;BMP_temperature;BMP_pressure;BME280_temperature;BME280_humidity;BME280_pressure;Samples;Min_cycle;Max_cycle;Signal;HPM_P1;HPM_P2
2023/05/26 00:01:30;;;;;;;20.33;4.78;;;14.00;99.10;;;;;;6188069;23;20037;-89
2023/05/26 00:08:01;;;;;;;25.90;5.07;;;13.90;99.20;;;;;;6187740;23;20462;-90
2023/05/26 00:10:27;;;;;;;26.00;6.50;;;13.80;99.20;;;;;;6187459;23;20020;-89
2023/05/26 00:12:52;;;;;;;19.75;5.18;;;13.80;99.30;;;;;;6160909;23;20059;-89
2023/05/26 00:15:48;;;;;;;23.55;5.07;;;13.70;99.40;;;;;;6160541;23;20092;-90
2023/05/26 00:25:45;;;;;;;23.40;5.35;;;13.60;99.80;;;;;;6189250;23;20080;-89
2023/05/26 00:31:43;;;;;;;22.00;4.65;;;13.50;99.90;;;;;;6189130;23;20008;-90
2023/05/26 00:41:02;;;;;;;23.05;4.85;;;13.40;99.90;;;;;;6213283;23;19989;-90
2023/05/26 00:47:13;;;;;;;25.80;4.88;;;13.30;99.90;;;;;;6214692;23;20061;-91
2023/05/26 00:49:39;;;;;;;22.00;5.70;;;13.30;99.90;;;;;;6164041;23;20020;-91
2023/05/26 00:52:05;;;;;;;25.38;5.78;;;13.20;99.90;;;;;;6214111;23;20005;-90
2023/05/26 00:57:56;;;;;;;25.15;5.38;;;13.20;99.90;;;;;;6188823;23;20016;-89
2023/05/26 01:04:17;;;;;;;24.30;6.15;;;13.10;99.90;;;;;;6188424;23;20009;-90
2023/05/26 01:06:46;;;;;;;25.75;5.43;;;13.10;99.90;;;;;;6162569;23;20005;-90
2023/05/26 01:09:13;;;;;;;29.25;4.93;;;13.00;99.90;;;;;;6187620;23;20005;-90
2023/05/26 01:12:22;;;;;;;24.48;5.55;;;13.10;99.90;;;;;;6162760;23;20062;-90
2023/05/26 01:18:42;;;;;;;23.73;5.72;;;13.00;99.90;;;;;;6187828;23;20063;-90
2023/05/26 01:32:05;;;;;;;30.42;6.03;;;12.80;99.90;;;;;;6187693;23;20008;-89
2023/05/26 01:37:55;;;;;;;23.20;4.55;;;12.70;99.90;;;;;;6187977;23;20067;-90
2023/05/26 01:54:07;;;;;;;20.55;5.15;;;12.60;99.90;;;;;;6187045;23;20005;-90
2023/05/26 03:00:33;;;;;;;23.80;4.40;;;11.70;99.90;;;;;;6216624;22;20027;-89
2023/05/26 03:27:17;;;;;;;29.80;4.80;;;11.50;99.90;;;;;;6157349;23;20020;-89
2023/05/26 03:54:04;;;;;;;26.73;6.03;;;11.30;99.90;;;;;;6157252;23;20096;-89
2023/05/26 04:03:59;;;;;;;28.63;4.55;;;11.30;99.90;;;;;;6236442;22;20036;-89
2023/05/26 04:09:59;;;;;;;22.20;5.00;;;11.20;99.90;;;;;;6158911;23;20056;-88
2023/05/26 04:12:28;;;;;;;25.67;6.15;;;11.20;99.90;;;;;;6134349;23;20013;-89
2023/05/26 04:14:54;;;;;;;24.05;4.68;;;11.20;99.90;;;;;;6136226;23;20016;-89
2023/05/26 04:28:24;;;;;;;21.98;5.07;;;11.20;99.90;;;;;;6185281;23;20012;-87
2023/05/26 04:34:12;;;;;;;30.85;5.93;;;11.10;99.90;;;;;;6172782;23;20028;-89
2023/05/26 04:36:38;;;;;;;24.27;4.82;;;11.20;99.90;;;;;;6159564;23;20074;-88
2023/05/26 04:39:07;;;;;;;24.75;4.80;;;11.20;99.90;;;;;;6133660;23;20025;-90
2023/05/26 04:48:30;;;;;;;22.92;5.78;;;11.20;99.90;;;;;;6158701;23;20053;-89
2023/05/26 04:54:17;;;;;;;23.27;5.60;;;11.20;99.90;;;;;;6158562;23;20091;-90
2023/05/26 04:56:43;;;;;;;29.75;5.65;;;11.20;99.90;;;;;;6132528;23;20005;-90
2023/05/26 04:59:17;;;;;;;24.58;5.20;;;11.20;99.90;;;;;;6156580;23;20056;-87
2023/05/26 05:01:47;;;;;;;23.02;6.13;;;11.30;99.90;;;;;;6156572;23;20013;-89
2023/05/26 05:04:13;;;;;;;28.85;5.70;;;11.30;99.90;;;;;;6135004;23;20006;-90
2023/05/26 05:10:07;;;;;;;23.08;5.05;;;11.30;99.90;;;;;;6187722;23;20439;-89
2023/05/26 05:12:33;;;;;;;24.42;5.15;;;11.30;99.90;;;;;;6137349;23;20016;-89
2023/05/26 05:14:58;;;;;;;27.67;5.63;;;11.30;99.90;;;;;;6137921;23;20001;-90
2023/05/26 05:17:35;;;;;;;23.13;4.47;;;11.30;99.90;;;;;;6137646;23;20009;-89
2023/05/26 05:23:44;;;;;;;25.48;5.45;;;11.30;99.90;;;;;;6188459;23;20004;-90
2023/05/26 05:30:01;;;;;;;25.30;5.35;;;11.40;99.90;;;;;;6188671;23;20004;-90
2023/05/26 05:32:46;;;;;;;26.50;4.90;;;11.40;99.90;;;;;;6163149;23;20008;-90
2023/05/26 05:35:13;;;;;;;24.40;4.47;;;11.40;99.90;;;;;;6187961;23;20009;-90
2023/05/26 05:37:39;;;;;;;31.10;5.45;;;11.50;99.90;;;;;;6190622;23;20009;-89
2023/05/26 05:40:15;;;;;;;27.75;5.90;;;11.50;99.90;;;;;;6188219;23;20048;-89
2023/05/26 05:49:37;;;;;;;25.00;4.57;;;11.60;99.90;;;;;;6190526;23;20008;-89
2023/05/26 05:55:31;;;;;;;27.25;5.38;;;11.60;99.90;;;;;;6188063;23;20062;-90
2023/05/26 06:01:20;;;;;;;25.55;5.05;;;11.60;99.90;;;;;;6187716;23;20035;-89
2023/05/26 06:07:39;;;;;;;30.60;6.10;;;11.70;99.90;;;;;;6185796;23;20133;-89
2023/05/26 06:13:33;;;;;;;24.50;5.13;;;11.80;99.90;;;;;;6188178;23;20008;-90
2023/05/26 06:19:24;;;;;;;23.30;5.63;;;11.80;99.90;;;;;;6187796;23;20004;-89
2023/05/26 06:25:22;;;;;;;29.05;5.72;;;11.90;99.90;;;;;;6187161;23;20056;-88
2023/05/26 06:34:44;;;;;;;22.75;4.40;;;12.00;99.90;;;;;;6187359;23;20005;-88
2023/05/26 06:37:10;;;;;;;24.50;5.18;;;12.00;99.90;;;;;;6135377;23;20440;-88
2023/05/26 06:39:36;;;;;;;21.50;5.45;;;12.10;99.90;;;;;;6161268;23;20013;-87
2023/05/26 06:42:02;;;;;;;24.98;5.13;;;12.10;99.90;;;;;;6184756;23;20746;-88
2023/05/26 06:44:28;;;;;;;21.85;5.47;;;12.10;99.90;;;;;;6185744;23;20001;-89
2023/05/26 06:46:54;;;;;;;24.90;5.32;;;12.20;99.90;;;;;;6186554;23;20104;-89
2023/05/26 06:49:19;;;;;;;27.40;5.35;;;12.20;99.90;;;;;;6184720;23;20424;-89
2023/05/26 06:55:27;;;;;;;27.88;5.03;;;12.30;99.90;;;;;;6187208;23;20077;-89
2023/05/26 06:57:56;;;;;;;23.30;5.15;;;12.40;99.90;;;;;;6186933;23;20016;-89
2023/05/26 07:00:22;;;;;;;22.38;5.38;;;12.40;99.90;;;;;;6136796;23;20080;-89
2023/05/26 07:10:13;;;;;;;19.77;4.28;;;12.60;99.90;;;;;;6201075;22;20093;-90
2023/05/26 07:13:16;;;;;;;24.15;5.90;;;12.60;99.90;;;;;;6188184;23;20009;-89
2023/05/26 07:15:43;;;;;;;20.42;4.28;;;12.70;99.90;;;;;;6187648;23;20025;-90
2023/05/26 07:18:09;;;;;;;21.33;5.35;;;12.70;99.90;;;;;;6185793;23;20044;-87
2023/05/26 07:20:40;;;;;;;22.45;5.18;;;12.80;99.90;;;;;;6186041;23;20100;-89
2023/05/26 07:23:06;;;;;;;22.67;5.05;;;12.80;99.90;;;;;;6187128;23;19998;-89
2023/05/26 07:25:49;;;;;;;28.98;5.25;;;12.90;99.90;;;;;;6185897;23;20028;-90
2023/05/26 07:28:17;;;;;;;21.30;4.60;;;13.00;99.90;;;;;;6186243;23;20005;-90
2023/05/26 07:30:43;;;;;;;26.77;5.07;;;13.10;99.90;;;;;;6186843;23;19997;-89
2023/05/26 07:33:13;;;;;;;25.63;5.03;;;13.10;99.90;;;;;;6188698;23;20012;-90
2023/05/26 07:39:03;;;;;;;22.75;5.47;;;13.30;99.90;;;;;;6189168;23;20439;-88
2023/05/26 07:41:48;;;;;;;27.20;5.35;;;13.30;99.90;;;;;;6190008;23;20005;-91
2023/05/26 07:44:14;;;;;;;21.30;5.00;;;13.40;99.90;;;;;;6188469;23;19997;-91
2023/05/26 07:46:45;;;;;;;22.90;4.65;;;13.40;99.90;;;;;;6188217;23;20005;-90
2023/05/26 07:49:11;;;;;;;27.13;5.65;;;13.50;99.90;;;;;;6164747;23;20495;-92
2023/05/26 07:51:37;;;;;;;26.73;5.03;;;13.50;99.90;;;;;;6188854;23;20028;-92
2023/05/26 07:54:05;;;;;;;24.58;4.50;;;13.60;99.90;;;;;;6189802;23;20323;-89
2023/05/26 07:56:31;;;;;;;19.38;4.05;;;13.60;99.90;;;;;;6205541;23;20033;-89
2023/05/26 08:05:49;;;;;;;24.45;4.90;;;13.80;99.90;;;;;;6214664;23;20004;-90
2023/05/26 08:08:15;;;;;;;20.92;4.82;;;13.90;99.90;;;;;;6189738;23;20001;-90
2023/05/26 08:10:41;;;;;;;21.75;5.13;;;13.90;99.90;;;;;;6214429;23;20001;-89
2023/05/26 08:13:12;;;;;;;19.58;5.30;;;14.00;99.90;;;;;;6157522;23;20020;-90
2023/05/26 08:19:05;;;;;;;19.98;4.57;;;14.10;99.90;;;;;;6198943;23;20076;-89
2023/05/26 08:25:04;;;;;;;21.02;4.78;;;14.30;99.90;;;;;;6193158;23;20008;-89
2023/05/26 08:31:06;;;;;;;18.98;4.80;;;14.40;99.90;;;;;;6190432;23;20087;-95
2023/05/26 08:33:39;;;;;;;19.52;4.45;;;14.50;99.90;;;;;;6188108;23;20522;-94
2023/05/26 08:42:27;;;;;;;24.55;4.93;;;14.70;99.90;;;;;;6190202;23;20454;-93
2023/05/26 08:45:19;;;;;;;18.98;4.95;;;14.80;99.90;;;;;;6160986;23;20001;-93
2023/05/26 08:48:06;;;;;;;;;;;;;;;;;;;;;
2023/05/26 08:51:02;;;;;;;16.58;3.92;;;14.80;99.90;;;;;;6189746;23;20092;-95
2023/05/26 08:53:39;;;;;;;17.25;3.97;;;14.90;99.90;;;;;;6187182;23;20012;-92
2023/05/26 08:56:12;;;;;;;16.52;4.35;;;15.00;99.90;;;;;;6139830;23;20063;-93
2023/05/26 08:59:12;;;;;;;15.60;4.00;;;15.10;99.90;;;;;;6162646;23;20005;-94
2023/05/26 09:02:05;;;;;;;20.35;5.10;;;15.20;99.90;;;;;;6163484;23;20052;-94
2023/05/26 09:04:47;;;;;;;;;;;;;;;;;;;;;
2023/05/26 09:07:41;;;;;;;;;;;;;;;;;;;;;
2023/05/26 09:10:48;;;;;;;15.52;4.30;;;15.40;99.90;;;;;;6168982;23;20096;-95
2023/05/26 09:13:26;;;;;;;17.20;4.15;;;15.50;99.90;;;;;;6131735;23;20025;-95
2023/05/26 09:16:05;;;;;;;;;;;;;;;;;;;;;
2023/05/26 09:18:43;;;;;;;17.17;3.88;;;15.50;99.90;;;;;;6190470;23;20080;-94
2023/05/26 09:21:11;;;;;;;21.52;5.00;;;15.70;99.90;;;;;;6189694;23;20001;-95
2023/05/26 09:23:52;;;;;;;;;;;;;;;;;;;;;
2023/05/26 09:26:45;;;;;;;17.63;5.10;;;15.70;99.90;;;;;;6195798;23;20072;-95
2023/05/26 09:29:21;;;;;;;18.00;3.92;;;15.80;99.90;;;;;;6195353;23;20012;-93
2023/05/26 09:31:58;;;;;;;18.50;4.50;;;15.90;99.90;;;;;;6166541;23;20005;-93
2023/05/26 09:34:32;;;;;;;20.13;5.07;;;15.90;99.90;;;;;;6203295;23;20024;-92
2023/05/26 09:37:12;;;;;;;19.55;4.28;;;16.00;99.90;;;;;;6205102;23;20064;-92
2023/05/26 09:40:14;;;;;;;14.13;3.63;;;16.10;99.90;;;;;;6192900;23;20005;-95
2023/05/26 09:43:01;;;;;;;16.38;3.70;;;16.10;99.90;;;;;;6166361;23;20000;-95
2023/05/26 09:45:58;;;;;;;19.77;4.30;;;16.20;99.90;;;;;;6182130;23;20443;-94
2023/05/26 09:48:36;;;;;;;15.95;4.28;;;16.20;99.90;;;;;;6188470;23;20009;-93
2023/05/26 09:51:42;;;;;;;15.30;4.13;;;16.30;99.90;;;;;;6162564;23;20008;-95
2023/05/26 09:54:13;;;;;;;19.92;4.10;;;16.30;99.90;;;;;;6189053;23;20001;-93
2023/05/26 09:56:50;;;;;;;;;;;16.40;99.90;;;;;;6192718;23;20032;-93
2023/05/26 09:59:40;;;;;;;14.85;3.92;;;16.40;99.90;;;;;;6189976;23;19911;-93
2023/05/26 10:02:27;;;;;;;14.95;3.88;;;16.50;99.90;;;;;;6189075;23;20015;-93
2023/05/26 10:04:58;;;;;;;16.17;4.63;;;16.50;99.90;;;;;;6186591;23;20010;-93
2023/05/26 10:07:39;;;;;;;18.10;3.92;;;16.60;99.90;;;;;;6138641;23;20309;-94
2023/05/26 10:10:22;;;;;;;16.77;3.50;;;16.70;99.90;;;;;;6187347;23;20013;-91
2023/05/26 10:12:51;;;;;;;17.83;3.78;;;16.80;99.90;;;;;;6139041;23;20005;-95
2023/05/26 10:15:25;;;;;;;15.07;4.00;;;16.80;99.90;;;;;;6187212;23;20434;-94
2023/05/26 10:18:01;;;;;;;16.08;3.80;;;16.90;99.90;;;;;;6187245;23;20012;-93
2023/05/26 10:20:51;;;;;;;17.67;3.97;;;16.90;99.90;;;;;;6161935;23;20419;-94
2023/05/26 10:23:31;;;;;;;15.13;3.70;;;17.00;99.90;;;;;;6165043;23;20083;-93
2023/05/26 10:25:57;;;;;;;;;;;17.10;99.90;;;;;;6186920;23;20005;-95
2023/05/26 10:28:49;;;;;;;14.80;3.70;;;17.20;99.90;;;;;;6186519;23;20282;-93
2023/05/26 10:31:38;;;;;;;17.58;3.90;;;17.20;99.90;;;;;;6188424;23;20001;-94
2023/05/26 10:34:46;;;;;;;;;;;;;;;;;;;;;
2023/05/26 10:37:17;;;;;;;13.52;3.38;;;17.30;99.90;;;;;;6165210;23;20084;-93
2023/05/26 10:39:55;;;;;;;14.05;3.65;;;17.40;99.90;;;;;;6136965;23;20091;-93
2023/05/26 10:42:27;;;;;;;17.10;4.40;;;17.40;99.90;;;;;;6187391;23;20003;-93
2023/05/26 10:48:24;;;;;;;12.48;3.22;;;17.50;99.90;;;;;;6144769;23;20024;-92
2023/05/26 10:50:56;;;;;;;;;;;17.60;99.90;;;;;;6174545;23;20005;-92
2023/05/26 10:53:25;;;;;;;15.75;4.15;;;17.70;99.90;;;;;;6193284;23;20303;-92
2023/05/26 10:56:17;;;;;;;13.80;3.63;;;17.70;99.90;;;;;;6186763;23;20419;-94
2023/05/26 10:58:49;;;;;;;15.70;3.67;;;17.80;99.90;;;;;;6186997;23;20001;-94
2023/05/26 11:01:27;;;;;;;17.15;4.80;;;17.80;99.90;;;;;;6188543;23;20005;-93
2023/05/26 11:04:13;;;;;;;18.42;4.70;;;17.90;99.90;;;;;;6187559;23;20007;-93
2023/05/26 11:06:58;;;;;;;16.92;4.03;;;17.90;99.90;;;;;;6188176;23;20020;-94
2023/05/26 11:09:31;;;;;;;15.27;3.10;;;18.00;99.90;;;;;;6187583;23;20088;-95
2023/05/26 11:11:59;;;;;;;11.02;3.45;;;18.00;99.90;;;;;;6187474;23;20445;-95
2023/05/26 11:14:28;;;;;;;12.13;3.38;;;18.10;99.90;;;;;;6190054;23;20020;-92
2023/05/26 11:17:03;;;;;;;13.27;3.40;;;18.10;99.90;;;;;;6187111;23;20012;-86
2023/05/26 11:19:38;;;;;;;14.52;3.85;;;18.20;99.90;;;;;;6184377;23;20013;-87
2023/05/26 11:22:05;;;;;;;13.05;3.83;;;18.20;99.90;;;;;;6184233;23;19998;-86
2023/05/26 11:24:32;;;;;;;15.10;3.75;;;18.30;99.90;;;;;;6184163;23;20008;-86
2023/05/26 11:27:05;;;;;;;13.85;3.38;;;18.40;99.90;;;;;;6159510;23;20009;-87
2023/05/26 11:29:31;;;;;;;13.07;3.25;;;18.40;99.90;;;;;;6187021;23;20005;-87
2023/05/26 11:31:56;;;;;;;16.00;3.75;;;18.50;99.90;;;;;;6184826;23;20005;-87
2023/05/26 11:34:22;;;;;;;17.80;4.30;;;18.50;99.90;;;;;;6186470;23;20107;-87
2023/05/26 11:36:51;;;;;;;12.38;3.15;;;18.60;99.90;;;;;;6136270;23;20032;-87
2023/05/26 11:39:17;;;;;;;14.20;4.03;;;18.60;99.90;;;;;;6190776;23;20009;-87
2023/05/26 11:41:43;;;;;;;10.80;3.53;;;18.70;99.90;;;;;;6210523;23;20021;-86
2023/05/26 11:44:12;;;;;;;13.00;3.65;;;18.70;99.90;;;;;;6208743;23;20178;-84
2023/05/26 11:46:39;;;;;;;15.00;3.33;;;18.80;99.90;;;;;;6210279;23;20009;-85
2023/05/26 11:49:14;;;;;;;13.40;3.78;;;18.80;99.90;;;;;;6208971;23;20004;-85
2023/05/26 11:51:48;;;;;;;10.57;3.28;;;19.00;99.90;;;;;;6209564;23;19981;-85
2023/05/26 11:54:15;;;;;;;14.68;3.38;;;19.00;99.90;;;;;;6189426;23;20525;-87
2023/05/26 11:56:43;;;;;;;13.50;3.55;;;19.10;99.90;;;;;;6183679;23;20075;-86
2023/05/26 11:59:08;;;;;;;12.52;3.60;;;19.10;99.90;;;;;;6186045;23;20001;-88
2023/05/26 12:01:35;;;;;;;16.48;3.38;;;19.20;99.90;;;;;;6135003;23;20082;-87
2023/05/26 12:04:02;;;;;;;14.85;3.50;;;19.20;99.90;;;;;;6162125;23;20001;-87
2023/05/26 12:06:30;;;;;;;11.35;3.63;;;19.30;99.90;;;;;;6194193;23;20378;-90
2023/05/26 12:09:04;;;;;;;11.00;3.08;;;19.30;99.90;;;;;;6187784;23;20446;-85
2023/05/26 12:11:34;;;;;;;16.70;4.10;;;19.40;99.90;;;;;;6184918;23;20013;-84
2023/05/26 12:14:00;;;;;;;13.32;3.25;;;19.40;99.90;;;;;;6186313;23;20080;-85
2023/05/26 12:16:34;;;;;;;10.77;3.28;;;19.50;99.90;;;;;;6184988;23;20012;-85
2023/05/26 12:19:10;;;;;;;10.93;2.70;;;19.50;99.60;;;;;;6162114;23;20060;-85
2023/05/26 12:21:45;;;;;;;14.68;3.60;;;19.60;99.40;;;;;;6186237;23;20087;-85
2023/05/26 12:24:12;;;;;;;13.13;3.38;;;19.70;99.60;;;;;;6185626;23;20005;-85
2023/05/26 12:26:38;;;;;;;12.13;3.13;;;19.70;99.70;;;;;;6187569;23;20084;-84
2023/05/26 12:29:08;;;;;;;10.55;3.30;;;19.80;99.70;;;;;;6160652;23;20001;-84
2023/05/26 12:31:48;;;;;;;10.73;3.42;;;19.80;99.50;;;;;;6185804;23;20375;-85
2023/05/26 12:34:18;;;;;;;13.45;3.58;;;19.90;99.30;;;;;;6185401;23;20320;-84
2023/05/26 12:36:45;;;;;;;14.43;3.47;;;19.90;99.10;;;;;;6187328;23;20001;-84
2023/05/26 12:39:12;;;;;;;12.57;4.13;;;19.90;99.00;;;;;;6135920;23;20083;-84
2023/05/26 12:41:40;;;;;;;13.93;3.60;;;20.00;98.80;;;;;;6136941;23;20005;-84
2023/05/26 12:44:06;;;;;;;15.00;3.45;;;20.00;98.50;;;;;;6160834;23;20016;-85
2023/05/26 12:46:34;;;;;;;12.20;3.65;;;20.10;98.40;;;;;;6186166;23;20428;-84
2023/05/26 12:49:00;;;;;;;14.13;3.58;;;20.10;98.30;;;;;;6191056;23;20012;-85
2023/05/26 12:51:27;;;;;;;13.43;3.00;;;20.20;98.30;;;;;;6160997;23;20001;-85
2023/05/26 12:53:53;;;;;;;14.27;3.75;;;20.30;97.80;;;;;;6160971;23;20013;-85
2023/05/26 12:56:19;;;;;;;13.60;3.45;;;20.30;96.90;;;;;;6136773;23;20009;-85
2023/05/26 12:58:45;;;;;;;11.73;3.13;;;20.30;96.80;;;;;;6161176;23;20012;-85
2023/05/26 13:01:12;;;;;;;13.23;3.58;;;20.40;96.70;;;;;;6136216;23;20527;-85
2023/05/26 13:03:39;;;;;;;11.05;3.25;;;20.40;96.50;;;;;;6162035;23;20075;-86
2023/05/26 13:06:07;;;;;;;10.73;3.13;;;20.40;96.30;;;;;;6184955;23;20005;-86
2023/05/26 13:08:33;;;;;;;13.50;3.15;;;20.50;96.10;;;;;;6184948;23;20076;-85
2023/05/26 13:10:59;;;;;;;14.50;3.30;;;20.50;95.70;;;;;;6184756;23;20039;-86
2023/05/26 13:13:25;;;;;;;12.55;3.67;;;20.60;95.50;;;;;;6186765;23;20071;-85
2023/05/26 13:15:52;;;;;;;10.75;3.28;;;20.60;95.70;;;;;;6185272;23;20001;-85
2023/05/26 13:18:19;;;;;;;13.65;3.47;;;20.60;96.10;;;;;;6185676;23;20009;-84
2023/05/26 13:20:45;;;;;;;10.40;3.00;;;20.70;96.20;;;;;;6186208;23;20285;-84
2023/05/26 13:23:11;;;;;;;10.02;2.70;;;20.80;95.80;;;;;;6136504;23;20002;-85
2023/05/26 13:25:37;;;;;;;13.63;3.20;;;20.80;95.80;;;;;;6136791;23;20063;-85
2023/05/26 13:28:03;;;;;;;10.98;3.00;;;20.90;95.50;;;;;;6136113;23;20091;-85
2023/05/26 13:30:29;;;;;;;13.77;2.83;;;20.90;95.20;;;;;;6187402;23;20420;-85
2023/05/26 13:32:56;;;;;;;12.68;3.17;;;20.90;94.80;;;;;;6136523;23;20059;-86
2023/05/26 13:35:22;;;;;;;10.57;3.03;;;21.00;94.40;;;;;;6185515;23;20024;-86
2023/05/26 13:37:51;;;;;;;14.52;3.25;;;21.00;94.50;;;;;;6135655;23;20013;-85
2023/05/26 13:40:18;;;;;;;13.32;3.70;;;21.00;94.20;;;;;;6136264;23;20009;-86
2023/05/26 13:42:45;;;;;;;11.27;3.13;;;21.10;94.20;;;;;;6135711;23;20016;-86
2023/05/26 13:45:12;;;;;;;13.10;2.95;;;21.20;94.10;;;;;;6135873;23;20009;-85
2023/05/26 13:47:38;;;;;;;9.20;3.25;;;21.20;93.70;;;;;;6185752;23;20005;-85
2023/05/26 13:50:05;;;;;;;9.57;2.72;;;21.30;93.70;;;;;;6186879;23;20005;-85
2023/05/26 13:52:31;;;;;;;10.27;2.95;;;21.30;93.60;;;;;;6185918;23;19997;-85
2023/05/26 13:54:57;;;;;;;11.52;3.28;;;21.30;93.60;;;;;;6161028;23;20005;-85
2023/05/26 13:57:24;;;;;;;12.38;3.13;;;21.40;93.30;;;;;;6160230;23;20063;-84
2023/05/26 13:59:53;;;;;;;13.55;3.30;;;21.40;93.00;;;;;;6187165;23;20076;-94
2023/05/26 14:02:23;;;;;;;12.13;3.15;;;21.40;92.90;;;;;;6189826;23;20132;-92
2023/05/26 14:04:49;;;;;;;7.53;2.55;;;21.40;92.70;;;;;;6189273;23;20427;-93
2023/05/26 14:07:15;;;;;;;11.77;3.67;;;21.50;92.30;;;;;;6187923;23;20051;-92
2023/05/26 14:09:44;;;;;;;11.68;3.40;;;21.50;92.20;;;;;;6187800;23;20439;-91
2023/05/26 14:12:13;;;;;;;10.48;3.40;;;21.50;92.10;;;;;;6188469;23;19997;-91
2023/05/26 14:14:41;;;;;;;13.23;3.25;;;21.50;91.60;;;;;;6188947;23;20004;-92
2023/05/26 14:17:07;;;;;;;12.60;3.50;;;21.50;91.00;;;;;;6139136;23;20454;-93
2023/05/26 14:19:35;;;;;;;9.45;3.10;;;21.50;90.80;;;;;;6188268;23;20080;-92
2023/05/26 14:22:07;;;;;;;13.02;2.80;;;21.60;91.00;;;;;;6189864;23;20055;-93
2023/05/26 14:24:40;;;;;;;8.32;3.15;;;21.60;91.00;;;;;;6140722;23;20352;-92
2023/05/26 14:27:13;;;;;;;13.02;3.08;;;21.60;90.80;;;;;;6188566;23;20016;-92
2023/05/26 14:29:47;;;;;;;11.73;3.28;;;21.70;90.50;;;;;;6141712;23;20005;-93
2023/05/26 14:32:13;;;;;;;10.95;3.08;;;21.70;90.20;;;;;;6189670;23;19997;-94
2023/05/26 14:34:39;;;;;;;10.13;2.92;;;21.70;90.00;;;;;;6195164;23;20003;-92
2023/05/26 14:37:05;;;;;;;10.90;3.20;;;21.70;90.20;;;;;;6201675;23;20001;-91
2023/05/26 14:39:33;;;;;;;9.48;3.00;;;21.80;89.90;;;;;;6189182;23;20319;-93
2023/05/26 14:41:59;;;;;;;13.70;3.30;;;21.80;89.20;;;;;;6138113;23;20079;-92
2023/05/26 14:44:25;;;;;;;11.48;3.05;;;21.80;88.60;;;;;;6189017;23;20009;-92
2023/05/26 14:46:50;;;;;;;9.23;2.45;;;21.80;88.10;;;;;;6188566;23;20028;-92
2023/05/26 14:49:19;;;;;;;10.82;3.17;;;21.90;87.60;;;;;;6187752;23;20011;-92
2023/05/26 14:51:50;;;;;;;12.88;3.67;;;21.90;87.60;;;;;;6189109;23;20104;-93
2023/05/26 14:54:15;;;;;;;;;;;21.90;87.20;;;;;;6142171;23;20009;-93
2023/05/26 14:56:47;;;;;;;10.98;3.10;;;21.90;86.60;;;;;;6187773;23;20303;-92
2023/05/26 14:59:22;;;;;;;13.00;3.10;;;21.90;86.20;;;;;;6187589;23;19997;-90
2023/05/26 15:01:58;;;;;;;7.93;2.50;;;22.00;85.60;;;;;;6188272;23;19997;-92
2023/05/26 15:04:26;;;;;;;10.60;3.38;;;22.00;85.20;;;;;;6139787;23;20001;-93
2023/05/26 15:06:51;;;;;;;10.48;3.05;;;22.00;84.80;;;;;;6188528;23;20009;-91
2023/05/26 15:09:17;;;;;;;10.98;3.58;;;22.00;84.40;;;;;;6190503;23;20094;-91
2023/05/26 15:11:45;;;;;;;9.18;3.00;;;22.00;84.00;;;;;;6188040;23;20104;-92
2023/05/26 15:14:13;;;;;;;11.02;3.20;;;22.00;83.70;;;;;;6138933;23;20005;-92
2023/05/26 15:16:39;;;;;;;6.93;2.47;;;22.00;83.50;;;;;;6189975;23;20383;-91
2023/05/26 15:19:09;;;;;;;10.95;3.03;;;22.00;82.60;;;;;;6192355;23;19994;-92
2023/05/26 15:21:35;;;;;;;9.82;3.30;;;22.00;81.70;;;;;;6173660;23;19993;-91
2023/05/26 15:24:01;;;;;;;10.43;3.55;;;22.00;81.10;;;;;;6163406;23;20009;-92
2023/05/26 15:26:27;;;;;;;12.38;3.13;;;22.10;80.10;;;;;;6212096;23;20013;-92
2023/05/26 15:28:53;;;;;;;9.13;2.80;;;22.00;79.60;;;;;;6158409;23;20016;-90
2023/05/26 15:31:18;;;;;;;11.65;2.53;;;22.00;79.60;;;;;;6186303;23;19989;-90
2023/05/26 15:33:44;;;;;;;13.00;3.13;;;22.10;78.60;;;;;;6211063;23;20458;-91
2023/05/26 15:36:21;;;;;;;13.95;3.63;;;22.10;78.80;;;;;;6155451;23;20009;-94
2023/05/26 15:38:47;;;;;;;11.90;3.05;;;22.00;79.20;;;;;;6194813;23;20008;-91
2023/05/26 15:41:13;;;;;;;11.85;3.50;;;22.00;79.50;;;;;;6190341;23;20097;-91
2023/05/26 15:43:39;;;;;;;10.60;2.90;;;22.00;79.40;;;;;;6187221;23;19997;-91
2023/05/26 15:46:05;;;;;;;11.40;3.00;;;22.10;79.10;;;;;;6189857;23;20040;-92
2023/05/26 15:48:32;;;;;;;10.75;3.40;;;22.10;78.60;;;;;;6187997;23;20091;-92
2023/05/26 15:50:58;;;;;;;17.48;3.42;;;22.20;78.50;;;;;;6197857;23;20001;-91
2023/05/26 15:53:23;;;;;;;12.32;3.08;;;22.20;78.40;;;;;;6153066;23;20032;-92
2023/05/26 15:55:49;;;;;;;11.50;3.28;;;22.20;78.20;;;;;;6140323;23;20001;-88
2023/05/26 15:58:15;;;;;;;15.00;3.13;;;22.20;78.20;;;;;;6187128;23;20335;-88
2023/05/26 16:00:41;;;;;;;15.73;3.72;;;22.20;78.00;;;;;;6163008;23;20008;-87
2023/05/26 16:03:06;;;;;;;12.90;2.90;;;22.30;78.00;;;;;;6189190;23;19997;-88
2023/05/26 16:05:35;;;;;;;15.18;3.55;;;22.30;77.70;;;;;;6164238;23;20412;-86
2023/05/26 16:08:01;;;;;;;12.63;3.05;;;22.30;77.60;;;;;;6163806;23;20040;-87
2023/05/26 16:10:26;;;;;;;12.20;3.47;;;22.30;77.50;;;;;;6186821;23;20009;-86
2023/05/26 16:12:52;;;;;;;15.07;3.72;;;22.40;77.10;;;;;;6161544;23;20005;-85
2023/05/26 16:15:18;;;;;;;9.65;3.55;;;22.40;76.70;;;;;;6161690;23;20032;-84
2023/05/26 16:17:44;;;;;;;13.13;3.95;;;22.40;77.00;;;;;;6186833;23;20012;-88
2023/05/26 16:20:11;;;;;;;13.02;3.33;;;22.40;77.10;;;;;;6187148;23;20072;-84
2023/05/26 16:22:36;;;;;;;16.77;4.45;;;22.50;77.20;;;;;;6161993;23;20419;-91
2023/05/26 16:25:03;;;;;;;13.57;3.60;;;22.40;77.40;;;;;;6186206;23;20012;-89
2023/05/26 16:27:29;;;;;;;12.98;4.07;;;22.50;77.60;;;;;;6186518;23;20419;-85
2023/05/26 16:29:56;;;;;;;11.80;3.55;;;22.50;77.60;;;;;;6161898;23;19997;-85
2023/05/26 16:32:22;;;;;;;12.43;3.55;;;22.60;77.60;;;;;;6185786;23;20005;-88
2023/05/26 16:34:47;;;;;;;12.43;3.85;;;22.60;77.50;;;;;;6161232;23;20012;-84
2023/05/26 16:37:13;;;;;;;12.82;3.80;;;22.60;77.30;;;;;;6161363;23;20016;-86
2023/05/26 16:39:39;;;;;;;10.95;3.53;;;22.70;77.50;;;;;;6187629;23;20055;-88
2023/05/26 16:42:06;;;;;;;14.27;4.10;;;22.70;77.20;;;;;;6187846;23;20009;-89
2023/05/26 16:44:31;;;;;;;15.23;4.28;;;22.80;77.00;;;;;;6190426;23;20027;-85
2023/05/26 16:47:00;;;;;;;19.63;4.28;;;22.80;76.30;;;;;;6186234;23;20479;-87
2023/05/26 16:49:26;;;;;;;14.38;4.55;;;22.80;75.90;;;;;;6161562;23;20508;-87
2023/05/26 16:51:51;;;;;;;13.02;3.88;;;22.80;75.60;;;;;;6186842;23;20020;-87
2023/05/26 16:54:17;;;;;;;15.27;4.18;;;22.80;75.30;;;;;;6162261;23;20009;-89
2023/05/26 16:56:43;;;;;;;13.07;3.85;;;22.80;74.70;;;;;;6163428;23;20005;-87
2023/05/26 16:59:08;;;;;;;13.82;4.10;;;22.80;74.40;;;;;;6137914;23;20001;-88
2023/05/26 17:01:34;;;;;;;15.05;4.05;;;22.80;74.20;;;;;;6188851;23;20048;-88
2023/05/26 17:04:00;;;;;;;11.48;3.70;;;22.80;74.10;;;;;;6187860;23;20443;-88
2023/05/26 17:06:25;;;;;;;12.13;3.50;;;22.80;73.80;;;;;;6166217;23;20017;-87
2023/05/26 17:09:07;;;;;;;;;;;;;;;;;;;;;
2023/05/26 17:11:45;;;;;;;10.88;3.28;;;22.80;73.00;;;;;;6171509;23;20032;-92
2023/05/26 17:14:10;;;;;;;11.48;3.42;;;22.70;72.70;;;;;;6190438;23;20005;-90
2023/05/26 17:16:36;;;;;;;11.68;3.92;;;22.70;72.80;;;;;;6187397;23;20028;-91
2023/05/26 17:19:03;;;;;;;13.65;4.18;;;22.60;72.80;;;;;;6187507;23;19997;-89
2023/05/26 17:21:28;;;;;;;17.10;4.38;;;22.50;72.60;;;;;;6186317;23;20033;-92
2023/05/26 17:24:04;;;;;;;15.40;3.95;;;22.50;72.60;;;;;;6187476;23;20001;-89
2023/05/26 17:26:44;;;;;;;18.27;4.40;;;22.40;72.60;;;;;;6165625;23;20013;-89
2023/05/26 17:32:36;;;;;;;17.45;4.93;;;22.20;72.20;;;;;;6185944;23;20005;-83
2023/05/26 17:35:02;;;;;;;14.95;4.32;;;22.10;73.10;;;;;;6159636;23;20015;-84
2023/05/26 17:37:28;;;;;;;15.20;3.97;;;22.00;73.00;;;;;;6184258;23;20008;-85
2023/05/26 17:39:54;;;;;;;14.02;4.28;;;21.90;73.70;;;;;;6184166;23;20315;-85
2023/05/26 17:42:19;;;;;;;9.73;4.00;;;21.80;73.60;;;;;;6185484;23;19997;-85
2023/05/26 17:44:45;;;;;;;11.52;3.95;;;21.70;73.50;;;;;;6160220;23;20005;-86
2023/05/26 17:47:11;;;;;;;15.23;3.90;;;21.60;73.60;;;;;;6136013;23;20017;-85
2023/05/26 17:49:37;;;;;;;14.15;4.30;;;21.50;74.00;;;;;;6160122;23;20001;-85
2023/05/26 17:52:03;;;;;;;11.93;3.83;;;21.40;74.20;;;;;;6161551;23;20008;-85
2023/05/26 17:54:28;;;;;;;14.75;4.25;;;21.40;74.20;;;;;;6185302;23;20423;-86
2023/05/26 17:57:01;;;;;;;17.42;4.32;;;21.30;74.30;;;;;;6185622;23;20016;-89
2023/05/26 17:59:26;;;;;;;15.57;4.18;;;21.20;74.70;;;;;;6138380;23;20009;-89
2023/05/26 18:01:52;;;;;;;14.98;4.10;;;21.10;75.30;;;;;;6165140;23;20025;-89
2023/05/26 18:04:53;;;;;;;12.10;4.10;;;21.00;75.30;;;;;;6187651;23;20005;-89
2023/05/26 18:10:22;;;;;;;12.93;3.90;;;20.90;75.20;;;;;;6188427;23;19935;-89